createdAt,value
2023-12-15T04:24:00.717Z,100634.38
2023-12-15T04:27:03.448Z,100634.38
2023-12-15T04:30:06.447Z,100633.28
2023-12-15T04:33:09.027Z,100643.56
2023-12-15T04:36:14.652Z,100649.72
2023-12-15T04:39:17.134Z,100664.56
2023-12-15T04:42:19.301Z,100669.28
2023-12-15T04:45:23.899Z,100679.62
2023-12-15T04:48:26.824Z,100684.19
2023-12-15T04:51:29.492Z,100694.91
2023-12-15T04:54:31.663Z,100690.38
2023-12-15T04:57:34.229Z,100711.31
2023-12-15T05:00:36.737Z,100704.87
2023-12-15T05:03:39.428Z,100698.69
2023-12-15T05:06:41.811Z,100705.78
2023-12-15T05:09:48.051Z,100713.28
2023-12-15T05:12:50.240Z,100710.97
2023-12-15T05:15:53.020Z,100712.09
2023-12-15T05:18:55.326Z,100710.53
2023-12-15T05:21:57.998Z,100729.41
2023-12-15T05:25:00.818Z,100733.28
2023-12-15T05:28:03.351Z,100757.72
2023-12-15T05:31:05.629Z,100753.22
2023-12-15T05:34:08.145Z,100772.06
2023-12-15T05:37:10.823Z,100773.66
2023-12-15T05:40:13.665Z,100770.75
2023-12-15T05:43:15.908Z,100781.09
2023-12-15T05:46:20.828Z,100796.37
2023-12-15T05:49:23.599Z,100811.16
2023-12-15T05:52:26.643Z,100812.69
2023-12-15T05:55:28.882Z,100824.69
2023-12-15T05:58:31.330Z,100815.66
2023-12-15T06:01:33.537Z,100830.13
2023-12-15T06:04:36.805Z,100832.59
2023-12-15T06:07:40.956Z,100836.22
2023-12-15T06:10:43.650Z,100843.97
2023-12-15T06:13:45.844Z,100841.88
2023-12-15T06:16:49.185Z,100848.50
2023-12-15T06:19:51.333Z,100856.09
2023-12-15T06:22:55.762Z,100854.97
2023-12-15T06:25:58.321Z,100856.88
2023-12-15T06:29:00.877Z,100868.28
2023-12-15T06:32:03.345Z,100877.16
2023-12-15T06:35:06.828Z,100879.34
2023-12-15T06:38:09.099Z,100881.19
2023-12-15T06:41:12.952Z,100890.87
2023-12-15T06:44:15.224Z,100889.44
2023-12-15T06:47:17.808Z,100898.37
2023-12-15T06:50:20.722Z,100901.56
2023-12-15T06:53:23.708Z,100916.19
2023-12-15T06:56:26.002Z,100919.31
2023-12-15T06:59:28.498Z,100932.06
2023-12-15T07:02:30.832Z,100931.03
2023-12-15T07:05:33.545Z,100937.00
2023-12-15T07:08:35.977Z,100944.59
2023-12-15T07:11:40.776Z,100958.97
2023-12-15T07:14:43.290Z,100972.28
2023-12-15T07:17:48.583Z,100969.31
2023-12-15T07:20:51.360Z,100971.66
2023-12-15T07:23:54.230Z,100983.53
2023-12-15T07:26:56.714Z,100980.06
2023-12-15T07:29:59.813Z,100995.44
2023-12-15T07:33:02.402Z,100996.72
2023-12-15T07:36:06.477Z,101002.69
2023-12-15T07:39:10.332Z,101018.47
2023-12-15T07:42:12.974Z,101029.44
2023-12-15T07:45:15.190Z,101039.28
2023-12-15T07:48:18.294Z,101035.53
2023-12-15T07:51:22.001Z,101040.97
2023-12-15T07:54:24.622Z,101051.31
2023-12-15T07:57:26.856Z,101053.78
2023-12-15T08:00:29.363Z,101058.94
2023-12-15T08:03:32.572Z,101068.81
2023-12-15T08:06:38.322Z,101081.56
2023-12-15T08:09:40.977Z,101077.66
2023-12-15T08:12:43.396Z,101087.41
2023-12-15T08:15:47.497Z,101087.53
2023-12-15T08:18:49.867Z,101106.12
2023-12-15T08:21:52.743Z,101113.69
2023-12-15T08:24:55.055Z,101114.59
2023-12-15T08:27:57.914Z,101129.88
2023-12-15T08:31:00.420Z,101137.81
2023-12-15T08:34:03.057Z,101135.34
2023-12-15T08:37:05.571Z,101149.72
2023-12-15T08:40:08.618Z,101152.16
2023-12-15T08:43:10.782Z,101148.41
2023-12-15T08:46:13.289Z,101151.91
2023-12-15T08:49:15.620Z,101164.34
2023-12-15T08:52:18.226Z,101163.16
2023-12-15T08:55:20.748Z,101171.56
2023-12-15T08:58:25.004Z,101173.50
2023-12-15T09:01:27.324Z,101179.22
2023-12-15T09:04:30.130Z,101179.97
2023-12-15T09:07:32.514Z,101189.03
2023-12-15T09:10:37.042Z,101195.53
2023-12-15T09:13:39.354Z,101203.03
2023-12-15T09:16:41.877Z,101207.28
2023-12-15T09:19:44.323Z,101204.69
2023-12-15T09:22:47.797Z,101203.25
2023-12-15T09:25:50.754Z,101211.28
2023-12-15T09:28:54.054Z,101218.00
2023-12-15T09:31:56.837Z,101219.97
2023-12-15T09:34:59.430Z,101235.53
2023-12-15T09:38:01.662Z,101238.25
2023-12-15T09:41:04.993Z,101244.47
2023-12-15T09:44:07.511Z,101251.72
2023-12-15T09:47:12.098Z,101253.22
2023-12-15T09:50:16.605Z,101253.87
2023-12-15T09:53:19.409Z,101257.28
2023-12-15T09:56:21.696Z,101252.53
2023-12-15T09:59:24.377Z,101261.22
2023-12-15T10:02:29.277Z,101268.09
2023-12-15T10:05:33.437Z,101267.72
2023-12-15T10:08:53.962Z,101276.16
2023-12-15T10:12:03.687Z,101281.50
2023-12-15T10:15:08.165Z,101279.38
2023-12-15T10:18:13.901Z,101281.72
2023-12-15T10:21:16.270Z,101290.44
2023-12-15T10:24:24.177Z,101290.44
2023-12-15T10:27:26.704Z,101300.53
2023-12-15T10:30:29.317Z,101311.59
2023-12-15T10:33:31.882Z,101312.88
2023-12-15T10:36:36.602Z,101318.63
2023-12-15T10:39:38.806Z,101318.88
2023-12-15T10:42:42.585Z,101310.53
2023-12-15T10:45:46.260Z,101315.47
2023-12-15T10:48:50.484Z,101316.66
2023-12-15T10:51:52.826Z,101326.62
2023-12-15T10:54:56.186Z,101327.12
2023-12-15T10:58:03.846Z,101329.06
2023-12-15T11:01:10.453Z,101331.28
2023-12-15T11:04:23.855Z,101340.59
2023-12-15T11:07:26.761Z,101347.59
2023-12-15T11:10:29.074Z,101342.22
2023-12-15T11:13:55.003Z,101345.09
2023-12-15T11:16:57.217Z,101346.84
2023-12-15T11:20:07.800Z,101340.91
2023-12-15T11:23:12.880Z,101345.41
2023-12-15T11:26:22.326Z,101355.59
2023-12-15T11:29:24.550Z,101346.56
2023-12-15T11:32:31.945Z,101360.34
2023-12-15T11:35:34.827Z,101366.69
2023-12-15T11:38:38.709Z,101362.13
2023-12-15T11:41:43.206Z,101360.56
2023-12-15T11:44:46.435Z,101364.59
2023-12-15T11:47:48.726Z,101367.69
2023-12-15T11:50:51.860Z,101375.50
2023-12-15T11:53:54.195Z,101377.84
2023-12-15T11:56:56.783Z,101364.94
2023-12-15T11:59:59.005Z,101362.34
2023-12-15T12:03:01.730Z,101371.47
2023-12-15T12:06:09.768Z,101368.69
2023-12-15T12:09:13.737Z,101370.75
2023-12-15T12:12:16.310Z,101370.06
2023-12-15T12:15:19.471Z,101373.44
2023-12-15T12:18:25.152Z,101373.69
2023-12-15T12:21:28.377Z,101369.47
2023-12-15T12:24:31.049Z,101371.28
2023-12-15T12:27:34.268Z,101382.16
2023-12-15T12:30:37.467Z,101387.69
2023-12-15T12:33:39.775Z,101393.44
2023-12-15T12:36:42.808Z,101397.56
2023-12-15T12:39:45.040Z,101406.28
2023-12-15T12:42:47.904Z,101417.31
2023-12-15T12:45:50.517Z,101423.97
2023-12-15T12:48:53.173Z,101425.66
2023-12-15T12:51:55.586Z,101432.69
2023-12-15T12:54:58.113Z,101424.75
2023-12-15T12:58:01.862Z,101428.38
2023-12-15T13:01:04.938Z,101422.28
2023-12-15T13:04:07.751Z,101436.69
2023-12-15T13:07:10.456Z,101438.13
2023-12-15T13:10:18.185Z,101447.06
2023-12-15T13:13:24.024Z,101464.06
2023-12-15T13:16:26.530Z,101462.25
2023-12-15T13:19:29.203Z,101465.72
2023-12-15T13:22:41.126Z,101469.25
2023-12-15T13:25:50.313Z,101469.25
2023-12-15T13:28:54.857Z,101479.47
2023-12-15T13:31:58.897Z,101472.31
2023-12-15T13:35:01.371Z,101478.03
2023-12-15T13:38:04.234Z,101482.44
2023-12-15T13:41:06.601Z,101493.94
2023-12-15T13:44:09.192Z,101501.37
2023-12-15T13:47:11.621Z,101506.41
2023-12-15T13:50:16.196Z,101521.03
2023-12-15T13:53:18.841Z,101530.81
2023-12-15T13:56:24.688Z,101528.31
2023-12-15T13:59:27.216Z,101533.28
2023-12-15T14:02:29.795Z,101543.66
2023-12-15T14:05:32.621Z,101553.31
2023-12-15T14:08:35.395Z,101553.53
2023-12-15T14:11:39.467Z,101555.16
2023-12-15T14:14:41.757Z,101558.72
2023-12-15T14:17:44.797Z,101564.88
2023-12-15T14:20:47.505Z,101566.22
2023-12-15T14:23:50.106Z,101569.03
2023-12-15T14:26:52.543Z,101571.97
2023-12-15T14:29:56.258Z,101575.81
2023-12-15T14:32:59.945Z,101574.47
2023-12-15T14:36:02.790Z,101583.84
2023-12-15T14:39:08.179Z,101578.34
2023-12-15T14:42:10.777Z,101589.94
2023-12-15T14:45:13.117Z,101596.34
2023-12-15T14:48:20.337Z,101602.87
2023-12-15T14:51:23.838Z,101606.13
2023-12-15T14:54:26.887Z,101614.34
2023-12-15T14:57:29.109Z,101619.84
2023-12-15T15:00:31.662Z,101626.84
2023-12-15T15:03:34.919Z,101635.84
2023-12-15T15:06:45.377Z,101645.09
2023-12-15T15:09:48.730Z,101647.84
2023-12-15T15:12:51.239Z,101648.44
2023-12-15T15:15:53.664Z,101650.44
2023-12-15T15:18:56.214Z,101658.47
2023-12-15T15:21:58.773Z,101668.19
2023-12-15T15:25:04.433Z,101665.88
2023-12-15T15:28:08.285Z,101677.72
2023-12-15T15:31:15.052Z,101684.19
2023-12-15T15:34:19.308Z,101687.59
2023-12-15T15:37:21.863Z,101690.81
2023-12-15T15:40:24.090Z,101707.75
2023-12-15T15:43:26.539Z,101704.06
2023-12-15T15:46:28.702Z,101698.06
2023-12-15T15:49:31.162Z,101699.44
2023-12-15T15:52:33.401Z,101698.50
2023-12-15T15:55:36.229Z,101709.69
2023-12-15T15:58:41.557Z,101706.03
2023-12-15T16:01:44.787Z,101711.47
2023-12-15T16:04:47.574Z,101719.22
2023-12-15T16:07:50.571Z,101728.56
2023-12-15T16:10:54.207Z,101729.47
2023-12-15T16:14:01.996Z,101734.63
2023-12-15T16:17:08.649Z,101734.97
2023-12-15T16:20:11.484Z,101740.19
2023-12-15T16:23:15.012Z,101748.69
